createdAt,value
2022-08-19T00:01:31.149Z,16.18
2022-08-19T00:03:59.667Z,16.17
2022-08-19T00:06:29.921Z,16.11
2022-08-19T00:08:57.190Z,16.14
2022-08-19T00:11:25.463Z,16.07
2022-08-19T00:13:53.490Z,16.11
2022-08-19T00:16:25.259Z,16.09
2022-08-19T00:18:56.166Z,16.06
2022-08-19T00:21:27.571Z,16.00
2022-08-19T00:23:55.628Z,15.97
2022-08-19T00:26:22.306Z,15.99
2022-08-19T00:28:48.894Z,15.94
2022-08-19T00:31:18.210Z,15.92
2022-08-19T00:33:45.106Z,15.86
2022-08-19T00:36:12.356Z,15.79
2022-08-19T00:38:43.797Z,15.76
2022-08-19T00:41:14.152Z,15.77
2022-08-19T00:43:42.076Z,15.78
2022-08-19T00:46:08.812Z,15.82
2022-08-19T00:48:36.370Z,15.84
2022-08-19T00:51:05.046Z,15.82
2022-08-19T00:53:33.498Z,15.78
2022-08-19T00:56:02.325Z,15.74
2022-08-19T00:58:32.690Z,15.76
2022-08-19T01:00:59.481Z,15.80
2022-08-19T01:03:26.086Z,15.85
2022-08-19T01:05:56.639Z,15.77
2022-08-19T01:08:24.495Z,15.68
2022-08-19T01:10:58.506Z,15.70
2022-08-19T01:13:29.568Z,15.62
2022-08-19T01:16:15.921Z,15.67
2022-08-19T01:18:43.461Z,15.68
2022-08-19T01:21:36.029Z,15.71
2022-08-19T01:24:02.808Z,15.74
2022-08-19T01:26:31.296Z,15.71
2022-08-19T01:29:00.805Z,15.65
2022-08-19T01:31:33.203Z,15.66
2022-08-19T01:34:00.967Z,15.64
2022-08-19T01:36:37.201Z,15.76
2022-08-19T01:39:07.861Z,15.71
2022-08-19T01:41:35.192Z,15.71
2022-08-19T01:44:17.670Z,15.67
2022-08-19T01:46:48.212Z,15.70
2022-08-19T01:49:19.354Z,15.70
2022-08-19T01:51:46.431Z,15.64
2022-08-19T01:54:23.394Z,15.57
2022-08-19T01:57:07.685Z,15.51
2022-08-19T01:59:37.460Z,15.44
2022-08-19T02:02:08.442Z,15.36
2022-08-19T02:04:35.995Z,15.36
2022-08-19T02:07:02.678Z,15.35
2022-08-19T02:09:29.588Z,15.33
2022-08-19T02:11:56.647Z,15.30
2022-08-19T02:14:23.326Z,15.28
2022-08-19T02:16:49.960Z,15.24
2022-08-19T02:19:18.771Z,15.10
2022-08-19T02:21:45.526Z,15.09
2022-08-19T02:24:13.211Z,15.10
2022-08-19T02:26:40.200Z,15.08
2022-08-19T02:29:08.591Z,15.04
2022-08-19T02:31:35.298Z,15.05
2022-08-19T02:34:04.488Z,15.00
2022-08-19T02:36:31.333Z,14.99
2022-08-19T02:38:57.980Z,15.02
2022-08-19T02:41:27.671Z,15.01
2022-08-19T02:44:22.884Z,15.07
2022-08-19T02:46:48.160Z,15.01
2022-08-19T02:49:17.338Z,14.99
2022-08-19T02:51:45.961Z,14.94
2022-08-19T02:54:15.958Z,14.89
2022-08-19T02:56:44.489Z,14.87
2022-08-19T02:59:12.901Z,14.95
2022-08-19T03:01:42.246Z,15.08
2022-08-19T03:04:14.128Z,15.09
2022-08-19T03:06:42.925Z,15.09
2022-08-19T03:09:09.849Z,15.07
2022-08-19T03:11:43.805Z,15.13
2022-08-19T03:14:11.277Z,15.11
2022-08-19T03:16:47.233Z,15.12
2022-08-19T03:19:15.353Z,15.04
2022-08-19T03:21:45.478Z,15.04
2022-08-19T03:24:12.764Z,14.85
2022-08-19T03:26:44.053Z,14.77
2022-08-19T03:29:16.323Z,14.69
2022-08-19T03:31:56.868Z,14.65
2022-08-19T03:34:28.629Z,14.67
2022-08-19T03:36:59.626Z,14.76
2022-08-19T03:39:27.463Z,14.83
2022-08-19T03:42:30.089Z,14.85
2022-08-19T03:44:45.895Z,14.89
2022-08-19T03:47:17.134Z,14.98
2022-08-19T03:49:44.117Z,14.92
2022-08-19T03:52:10.850Z,14.85
2022-08-19T03:54:38.961Z,14.90
2022-08-19T03:57:06.517Z,14.97
2022-08-19T03:59:36.308Z,14.96
2022-08-19T04:02:09.995Z,15.05
2022-08-19T04:04:38.530Z,15.09
2022-08-19T04:07:05.633Z,15.13
2022-08-19T04:09:34.892Z,15.13
2022-08-19T04:12:01.554Z,15.14
2022-08-19T04:14:33.383Z,15.10
2022-08-19T04:17:01.776Z,15.15
2022-08-19T04:19:33.256Z,15.17
2022-08-19T04:22:02.109Z,15.15
2022-08-19T04:24:28.889Z,15.14
2022-08-19T04:26:55.507Z,15.13
2022-08-19T04:29:26.225Z,15.15
2022-08-19T04:31:56.558Z,15.14
2022-08-19T04:34:25.250Z,15.16
2022-08-19T04:36:56.253Z,15.13
2022-08-19T04:39:50.176Z,15.13
2022-08-19T04:42:36.472Z,15.16
2022-08-19T04:45:13.881Z,15.28
2022-08-19T04:47:47.998Z,15.32
2022-08-19T04:50:25.848Z,15.39
2022-08-19T04:52:53.488Z,15.45
2022-08-19T04:55:20.329Z,15.45
2022-08-19T04:57:52.184Z,15.51
2022-08-19T05:00:19.186Z,15.57
2022-08-19T05:02:45.895Z,15.64
2022-08-19T05:05:13.494Z,15.75
2022-08-19T05:07:42.076Z,15.89
2022-08-19T05:10:11.993Z,15.97
2022-08-19T05:12:39.115Z,16.13
2022-08-19T05:15:09.615Z,16.30
2022-08-19T05:18:04.165Z,16.53
2022-08-19T05:20:49.518Z,16.92
2022-08-19T05:23:20.543Z,17.00
2022-08-19T05:26:01.272Z,16.98
2022-08-19T05:28:38.872Z,17.00
2022-08-19T05:31:05.681Z,16.99
2022-08-19T05:33:32.311Z,17.13
2022-08-19T05:35:59.695Z,17.51
2022-08-19T05:38:29.759Z,18.26
2022-08-19T05:40:59.771Z,19.05
2022-08-19T05:43:28.882Z,18.78
2022-08-19T05:45:56.143Z,18.31
2022-08-19T05:48:31.231Z,18.27
2022-08-19T05:50:59.615Z,17.95
2022-08-19T05:53:28.904Z,17.98
2022-08-19T05:55:58.554Z,18.37
2022-08-19T05:58:33.906Z,18.43
2022-08-19T06:01:05.430Z,18.74
2022-08-19T06:03:34.314Z,18.79
2022-08-19T06:06:01.119Z,18.86
2022-08-19T06:08:34.220Z,18.47
2022-08-19T06:11:14.286Z,18.45
2022-08-19T06:13:44.933Z,18.36
2022-08-19T06:16:11.626Z,18.30
2022-08-19T06:18:38.291Z,18.38
2022-08-19T06:21:05.455Z,18.20
2022-08-19T06:23:32.149Z,18.46
2022-08-19T06:26:01.527Z,18.71
2022-08-19T06:28:28.435Z,19.03
2022-08-19T06:30:57.994Z,19.16
2022-08-19T06:33:33.996Z,19.23
2022-08-19T06:36:00.791Z,19.63
2022-08-19T06:38:30.346Z,19.55
2022-08-19T06:41:07.397Z,19.34
2022-08-19T06:43:35.158Z,18.93
2022-08-19T06:46:05.011Z,18.77
2022-08-19T06:48:45.071Z,18.90
2022-08-19T06:51:19.336Z,19.39
2022-08-19T06:53:48.267Z,19.31
2022-08-19T06:56:21.992Z,19.53
2022-08-19T06:58:53.492Z,19.92
2022-08-19T07:01:20.896Z,19.51
2022-08-19T07:03:47.872Z,19.23
2022-08-19T07:09:20.517Z,18.93
2022-08-19T07:11:53.464Z,19.00
2022-08-19T07:14:26.402Z,18.92
2022-08-19T07:16:55.863Z,19.12
2022-08-19T07:19:24.631Z,19.44
2022-08-19T07:21:53.827Z,20.05
2022-08-19T07:24:24.776Z,20.31
2022-08-19T07:26:56.302Z,20.56
2022-08-19T07:29:24.102Z,20.56
2022-08-19T07:31:53.143Z,20.62
2022-08-19T07:34:27.627Z,20.78
2022-08-19T07:36:55.542Z,20.89
2022-08-19T07:39:34.204Z,21.22
2022-08-19T07:42:04.259Z,20.83
2022-08-19T07:44:31.091Z,20.29
2022-08-19T07:46:58.629Z,19.96
2022-08-19T07:49:25.782Z,19.92
2022-08-19T07:51:58.646Z,20.34
2022-08-19T07:54:27.061Z,20.42
2022-08-19T07:56:57.726Z,20.63
2022-08-19T07:59:24.944Z,20.59
2022-08-19T08:01:52.184Z,20.53
2022-08-19T08:04:38.576Z,20.88
2022-08-19T08:07:25.366Z,21.05
2022-08-19T08:10:02.869Z,21.27
2022-08-19T08:12:52.614Z,21.33
2022-08-19T08:15:33.231Z,21.58
2022-08-19T08:18:00.007Z,21.37
2022-08-19T08:20:26.705Z,21.33
2022-08-19T08:23:35.028Z,21.55
2022-08-19T08:26:03.127Z,21.84
2022-08-19T08:28:30.159Z,21.66
2022-08-19T08:30:58.601Z,21.82
2022-08-19T08:33:33.492Z,21.74
2022-08-19T08:36:03.810Z,21.90
2022-08-19T08:38:38.996Z,22.16
2022-08-19T08:41:23.286Z,21.12
2022-08-19T08:43:53.154Z,21.47
2022-08-19T08:46:48.928Z,21.50
2022-08-19T08:49:29.389Z,21.74
2022-08-19T08:52:08.695Z,21.77
2022-08-19T08:54:54.679Z,21.57
2022-08-19T08:57:33.746Z,21.61
2022-08-19T09:00:22.019Z,21.86
2022-08-19T09:02:50.961Z,21.81
2022-08-19T09:05:22.610Z,21.86
2022-08-19T09:08:07.382Z,22.02
2022-08-19T09:10:58.984Z,21.60
2022-08-19T09:13:28.050Z,21.27
2022-08-19T09:16:10.473Z,21.69
2022-08-19T09:18:59.987Z,21.90
2022-08-19T09:21:30.327Z,21.90
2022-08-19T09:24:03.693Z,21.64
2022-08-19T09:26:47.637Z,21.94
2022-08-19T09:29:22.442Z,21.90
2022-08-19T09:31:56.892Z,21.62
2022-08-19T09:34:23.550Z,21.89
2022-08-19T09:36:54.476Z,22.14
2022-08-19T09:39:35.763Z,22.11
2022-08-19T09:42:05.851Z,22.11
2022-08-19T09:44:43.576Z,22.08
2022-08-19T09:47:12.460Z,22.16
2022-08-19T09:49:41.909Z,22.08
2022-08-19T09:52:13.636Z,21.99
2022-08-19T09:54:40.375Z,22.22
2022-08-19T09:57:13.638Z,22.30
2022-08-19T09:59:40.959Z,22.42
2022-08-19T10:02:11.161Z,22.28
2022-08-19T10:04:58.960Z,22.33
2022-08-19T10:07:36.553Z,21.98
2022-08-19T10:10:13.185Z,22.12
2022-08-19T10:12:40.322Z,22.03
2022-08-19T10:15:09.970Z,22.07
2022-08-19T10:17:48.037Z,22.10
2022-08-19T10:20:26.609Z,22.54
2022-08-19T10:22:53.506Z,22.46
2022-08-19T10:25:20.304Z,22.49
2022-08-19T10:27:53.020Z,22.73
2022-08-19T10:30:22.979Z,22.73
2022-08-19T10:32:51.809Z,22.75
2022-08-19T10:35:21.920Z,22.87
2022-08-19T10:38:01.970Z,22.78
2022-08-19T10:40:29.777Z,22.91
2022-08-19T10:43:00.041Z,22.88
2022-08-19T10:45:28.122Z,22.82
2022-08-19T10:47:55.142Z,22.88
2022-08-19T10:50:41.545Z,22.75
2022-08-19T10:53:13.503Z,22.94
2022-08-19T10:55:59.276Z,22.90
2022-08-19T10:58:28.361Z,23.02
2022-08-19T11:01:01.325Z,23.04
2022-08-19T11:03:31.615Z,23.14
2022-08-19T11:06:04.470Z,23.29
2022-08-19T11:08:32.154Z,23.23
2022-08-19T11:11:02.138Z,23.28
2022-08-19T11:13:34.427Z,22.97
2022-08-19T11:16:07.330Z,23.19
2022-08-19T11:18:37.225Z,23.25
2022-08-19T11:21:21.083Z,23.29
2022-08-19T11:23:49.836Z,23.55
2022-08-19T11:26:17.354Z,23.69
2022-08-19T11:28:46.811Z,23.62
2022-08-19T11:31:19.871Z,23.57
2022-08-19T11:33:47.770Z,23.30
2022-08-19T11:36:18.425Z,23.46
2022-08-19T11:38:46.114Z,23.56
2022-08-19T11:41:13.065Z,23.79
2022-08-19T11:43:40.918Z,23.96
2022-08-19T11:46:09.547Z,24.11
2022-08-19T11:48:38.010Z,23.75
2022-08-19T11:51:13.145Z,23.81
2022-08-19T11:53:40.411Z,24.00
2022-08-19T11:56:09.086Z,24.15
2022-08-19T11:58:36.347Z,24.07
2022-08-19T12:01:07.123Z,24.30
2022-08-19T12:03:37.127Z,24.42
2022-08-19T12:06:13.672Z,24.05
2022-08-19T12:08:45.246Z,24.23
2022-08-19T12:11:14.799Z,24.12
2022-08-19T12:13:42.574Z,24.05
2022-08-19T12:16:15.951Z,24.29
2022-08-19T12:18:47.366Z,24.47
2022-08-19T12:21:15.556Z,24.36
2022-08-19T12:23:43.089Z,24.23
2022-08-19T12:26:11.350Z,24.47
2022-08-19T12:28:38.745Z,24.64
2022-08-19T12:31:06.370Z,24.53
2022-08-19T12:33:33.227Z,24.36
2022-08-19T12:36:06.376Z,24.42
2022-08-19T12:38:35.481Z,24.71
2022-08-19T12:41:04.391Z,24.79
2022-08-19T12:43:31.365Z,24.63
2022-08-19T12:46:00.489Z,24.72
2022-08-19T12:48:33.368Z,24.59
2022-08-19T12:51:16.363Z,24.52
2022-08-19T12:53:43.668Z,24.60
2022-08-19T12:56:15.675Z,24.94
2022-08-19T12:58:49.047Z,24.80
2022-08-19T13:01:18.405Z,25.02
2022-08-19T13:03:49.360Z,25.08
2022-08-19T13:06:19.528Z,25.25
2022-08-19T13:08:47.383Z,25.20
2022-08-19T13:11:20.638Z,25.23
2022-08-19T13:13:49.122Z,24.95
2022-08-19T13:16:16.234Z,24.71
2022-08-19T13:18:52.850Z,25.13
2022-08-19T13:21:21.541Z,25.12
2022-08-19T13:23:50.763Z,25.21
2022-08-19T13:26:21.050Z,25.05
2022-08-19T13:29:09.443Z,25.30
2022-08-19T13:31:55.798Z,25.29
2022-08-19T13:34:35.015Z,25.54
2022-08-19T13:37:06.337Z,25.42
2022-08-19T13:39:38.946Z,25.43
2022-08-19T13:42:10.383Z,25.50
2022-08-19T13:44:37.391Z,25.43
2022-08-19T13:47:07.793Z,25.28
2022-08-19T13:49:36.853Z,25.48
2022-08-19T13:52:05.617Z,25.60
2022-08-19T13:54:32.248Z,25.53
2022-08-19T13:56:58.908Z,25.45
2022-08-19T13:59:28.569Z,25.47
2022-08-19T14:01:59.343Z,25.76
2022-08-19T14:04:26.152Z,25.82
2022-08-19T14:06:52.853Z,26.00
2022-08-19T14:09:22.327Z,25.87
2022-08-19T14:11:52.340Z,26.04
2022-08-19T14:14:22.435Z,25.81
2022-08-19T14:16:55.709Z,25.56
2022-08-19T14:19:25.094Z,25.61
2022-08-19T14:22:04.733Z,25.76
2022-08-19T14:24:31.579Z,25.86
2022-08-19T14:27:07.159Z,26.12
2022-08-19T14:29:36.145Z,26.18
2022-08-19T14:32:02.977Z,25.95
2022-08-19T14:34:29.845Z,25.88
2022-08-19T14:36:56.640Z,25.68
2022-08-19T14:39:26.494Z,25.64
2022-08-19T14:41:53.145Z,25.29
2022-08-19T14:44:20.604Z,25.45
2022-08-19T14:46:56.522Z,25.30
2022-08-19T14:49:26.791Z,25.70
2022-08-19T14:52:05.105Z,25.67
2022-08-19T14:54:31.938Z,25.44
2022-08-19T14:56:58.629Z,25.41
2022-08-19T14:59:25.667Z,25.55
2022-08-19T15:02:33.964Z,25.94
2022-08-19T15:04:58.266Z,26.41
2022-08-19T15:07:28.998Z,26.49
2022-08-19T15:09:56.562Z,26.75
2022-08-19T15:12:25.772Z,26.67
2022-08-19T15:14:58.127Z,26.10
2022-08-19T15:17:32.396Z,26.15
2022-08-19T15:20:14.958Z,26.63
2022-08-19T15:22:45.619Z,26.42
2022-08-19T15:25:17.302Z,26.25
2022-08-19T15:27:44.442Z,26.14
2022-08-19T15:30:12.302Z,26.11
2022-08-19T15:32:49.034Z,26.24
2022-08-19T15:35:16.237Z,26.77
2022-08-19T15:37:43.381Z,26.60
2022-08-19T15:40:15.797Z,26.67
2022-08-19T15:42:46.798Z,26.40
2022-08-19T15:45:15.711Z,26.26
2022-08-19T15:47:51.229Z,26.34
2022-08-19T15:50:21.418Z,26.30
2022-08-19T15:52:56.948Z,26.29
2022-08-19T15:55:36.090Z,26.31
2022-08-19T15:58:28.425Z,26.44
2022-08-19T16:01:40.818Z,26.57
2022-08-19T16:04:29.189Z,26.29
2022-08-19T16:07:00.269Z,26.20
2022-08-19T16:09:30.183Z,26.02
2022-08-19T16:12:06.479Z,25.84
2022-08-19T16:14:35.361Z,25.95
2022-08-19T16:17:14.789Z,26.22
2022-08-19T16:19:41.557Z,26.35
2022-08-19T16:22:10.003Z,26.27
2022-08-19T16:24:40.165Z,26.32
2022-08-19T16:27:07.186Z,26.31
2022-08-19T16:29:39.500Z,26.14
2022-08-19T16:32:16.327Z,25.80
2022-08-19T16:34:43.622Z,25.72
2022-08-19T16:37:10.448Z,25.57
2022-08-19T16:39:45.179Z,25.47
2022-08-19T16:42:12.824Z,25.21
2022-08-19T16:44:48.828Z,25.13
2022-08-19T16:47:17.908Z,25.00
2022-08-19T16:49:52.454Z,24.95
2022-08-19T16:52:21.652Z,24.92
2022-08-19T16:54:48.594Z,24.82
2022-08-19T16:57:16.586Z,24.80
2022-08-19T16:59:49.267Z,24.88
2022-08-19T17:02:21.939Z,24.97
2022-08-19T17:04:55.745Z,24.98
2022-08-19T17:07:26.203Z,25.01
2022-08-19T17:09:52.932Z,24.99
2022-08-19T17:12:19.677Z,24.83
2022-08-19T17:14:46.362Z,24.50
2022-08-19T17:17:15.763Z,24.31
2022-08-19T17:19:44.625Z,24.15
2022-08-19T17:22:13.016Z,24.01
2022-08-19T17:24:40.648Z,23.92
2022-08-19T17:27:09.984Z,23.92
2022-08-19T17:29:36.737Z,24.18
2022-08-19T17:32:06.595Z,24.27
2022-08-19T17:34:33.678Z,24.46
2022-08-19T17:37:07.945Z,24.51
2022-08-19T17:39:37.806Z,24.45
2022-08-19T17:42:08.146Z,24.30
2022-08-19T17:44:36.721Z,24.20
2022-08-19T17:47:04.562Z,23.93
2022-08-19T17:49:33.315Z,23.72
2022-08-19T17:52:00.575Z,23.48
2022-08-19T17:54:33.587Z,23.17
2022-08-19T17:57:01.476Z,23.02
2022-08-19T17:59:29.942Z,22.92
2022-08-19T18:02:03.302Z,22.69
2022-08-19T18:04:30.672Z,22.44
2022-08-19T18:06:57.523Z,22.25
2022-08-19T18:09:27.398Z,22.11
2022-08-19T18:11:59.177Z,21.98
2022-08-19T18:14:34.097Z,21.86
2022-08-19T18:19:56.124Z,21.52
2022-08-19T18:22:26.606Z,21.46
2022-08-19T18:24:57.353Z,21.34
2022-08-19T18:27:26.257Z,21.21
2022-08-19T18:29:54.563Z,21.18
2022-08-19T18:32:38.151Z,21.05
2022-08-19T18:35:16.263Z,20.94
2022-08-19T18:37:44.261Z,20.79
2022-08-19T18:40:38.074Z,20.79
2022-08-19T18:43:11.512Z,20.74
2022-08-19T18:45:58.153Z,20.81
2022-08-19T18:48:43.636Z,20.85
2022-08-19T18:51:10.530Z,20.73
2022-08-19T18:53:39.377Z,20.61
2022-08-19T18:56:08.055Z,20.44
2022-08-19T18:58:36.555Z,20.36
2022-08-19T19:01:32.246Z,20.22
2022-08-19T19:04:01.828Z,20.13
2022-08-19T19:06:39.370Z,20.03
2022-08-19T19:09:26.801Z,19.90
2022-08-19T19:12:04.118Z,19.78
2022-08-19T19:14:50.571Z,19.69
2022-08-19T19:17:17.753Z,19.61
2022-08-19T19:19:44.851Z,19.60
2022-08-19T19:22:27.535Z,19.60
2022-08-19T19:24:55.254Z,19.61
2022-08-19T19:27:22.167Z,19.57
2022-08-19T19:29:52.751Z,19.60
2022-08-19T19:32:40.346Z,19.87
2022-08-19T19:35:30.231Z,19.86
2022-08-19T19:38:02.712Z,19.86
2022-08-19T19:40:29.668Z,19.83
2022-08-19T19:42:56.383Z,19.80
2022-08-19T19:45:23.354Z,19.76
2022-08-19T19:47:50.195Z,19.73
2022-08-19T19:50:28.233Z,19.91
2022-08-19T19:52:55.265Z,19.99
2022-08-19T19:55:22.442Z,20.12
2022-08-19T19:57:56.356Z,20.05
2022-08-19T20:00:23.416Z,20.03
2022-08-19T20:02:51.066Z,20.00
2022-08-19T20:05:26.924Z,19.94
2022-08-19T20:08:13.667Z,19.99
2022-08-19T20:10:42.183Z,20.08
2022-08-19T20:13:09.751Z,20.03
2022-08-19T20:15:42.580Z,19.96
2022-08-19T20:18:10.756Z,19.93
2022-08-19T20:20:37.459Z,19.89
2022-08-19T20:23:12.002Z,19.91
2022-08-19T20:25:39.308Z,19.99
2022-08-19T20:28:05.968Z,20.01
2022-08-19T20:30:33.300Z,19.96
2022-08-19T20:33:09.561Z,20.03
2022-08-19T20:35:37.241Z,20.08
2022-08-19T20:38:11.942Z,20.12
2022-08-19T20:40:39.281Z,20.15
2022-08-19T20:43:13.300Z,20.18
2022-08-19T20:45:40.539Z,20.37
2022-08-19T20:48:08.686Z,20.39
2022-08-19T20:50:36.313Z,20.36
2022-08-19T20:53:14.490Z,20.28
2022-08-19T20:55:44.507Z,20.20
2022-08-19T20:58:12.640Z,20.15
2022-08-19T21:00:40.791Z,20.09
2022-08-19T21:03:07.451Z,20.07
2022-08-19T21:05:34.170Z,20.04
2022-08-19T21:08:01.058Z,20.02
2022-08-19T21:10:27.799Z,20.06
2022-08-19T21:13:00.416Z,20.15
2022-08-19T21:15:27.181Z,20.17
2022-08-19T21:17:53.971Z,20.26
2022-08-19T21:20:20.819Z,20.48
2022-08-19T21:22:47.600Z,20.85
2022-08-19T21:25:18.550Z,20.92
2022-08-19T21:27:45.346Z,20.98
2022-08-19T21:30:15.168Z,21.09
2022-08-19T21:32:41.907Z,21.08
2022-08-19T21:35:18.096Z,20.99
2022-08-19T21:37:45.100Z,20.93
2022-08-19T21:40:12.131Z,20.91
2022-08-19T21:42:42.442Z,20.86
2022-08-19T21:45:18.598Z,20.75
2022-08-19T21:47:52.800Z,20.81
2022-08-19T21:50:19.609Z,20.86
2022-08-19T21:52:46.914Z,20.77
2022-08-19T21:55:14.284Z,20.78
2022-08-19T21:57:43.445Z,20.75
2022-08-19T22:00:16.403Z,20.74
2022-08-19T22:02:43.599Z,20.71
2022-08-19T22:05:13.894Z,20.66
2022-08-19T22:07:43.004Z,20.59
2022-08-19T22:10:13.015Z,20.59
2022-08-19T22:12:46.036Z,20.58
2022-08-19T22:15:21.223Z,20.45
2022-08-19T22:17:48.059Z,20.43
2022-08-19T22:20:18.036Z,20.46
2022-08-19T22:22:51.088Z,20.43
2022-08-19T22:25:31.821Z,20.41
2022-08-19T22:28:01.515Z,20.45
2022-08-19T22:30:33.089Z,20.32
2022-08-19T22:33:05.569Z,20.28
2022-08-19T22:35:34.512Z,20.23
2022-08-19T22:38:12.644Z,20.18
2022-08-19T22:40:47.095Z,20.21
2022-08-19T22:43:18.210Z,20.21
2022-08-19T22:45:45.815Z,20.16
2022-08-19T22:48:14.524Z,20.16
2022-08-19T22:51:05.075Z,20.13
2022-08-19T22:53:36.694Z,20.07
2022-08-19T22:56:15.476Z,20.09
2022-08-19T22:58:42.580Z,20.01
2022-08-19T23:01:11.791Z,20.00
2022-08-19T23:03:56.298Z,19.93
2022-08-19T23:06:33.061Z,19.89
2022-08-19T23:09:01.148Z,19.86
2022-08-19T23:11:27.872Z,19.79
2022-08-19T23:13:54.548Z,19.74
2022-08-19T23:16:21.195Z,19.75
2022-08-19T23:18:48.250Z,19.75
2022-08-19T23:21:15.054Z,19.69
2022-08-19T23:23:41.655Z,19.67
2022-08-19T23:26:11.738Z,19.61
2022-08-19T23:29:00.474Z,19.54
2022-08-19T23:31:27.164Z,19.50
2022-08-19T23:33:53.833Z,19.46
2022-08-19T23:36:21.049Z,19.48
2022-08-19T23:38:49.140Z,19.43
2022-08-19T23:41:17.321Z,19.45
2022-08-19T23:43:44.491Z,19.48
2022-08-19T23:46:13.483Z,19.58
2022-08-19T23:48:40.452Z,19.53
2022-08-19T23:51:09.933Z,19.65
2022-08-19T23:53:40.872Z,19.61
2022-08-19T23:56:09.461Z,19.62
2022-08-19T23:58:37.193Z,19.66
